createdAt,value
2023-02-24T00:01:02.288Z,20.58
2023-02-24T00:03:06.109Z,25.10
2023-02-24T00:05:09.175Z,24.20
2023-02-24T00:07:13.036Z,24.90
2023-02-24T00:09:20.980Z,23.10
2023-02-24T00:11:23.363Z,20.15
2023-02-24T00:13:25.787Z,23.77
2023-02-24T00:15:28.278Z,25.77
2023-02-24T00:17:30.871Z,24.53
2023-02-24T00:19:34.083Z,16.30
2023-02-24T00:21:36.956Z,14.80
2023-02-24T00:23:40.323Z,13.77
2023-02-24T00:25:42.727Z,16.65
2023-02-24T00:27:45.097Z,21.80
2023-02-24T00:29:47.535Z,20.70
2023-02-24T00:32:00.110Z,20.00
2023-02-24T00:34:03.248Z,22.20
2023-02-24T00:36:26.952Z,19.42
2023-02-24T00:38:31.870Z,20.40
2023-02-24T00:40:37.339Z,22.75
2023-02-24T00:42:39.957Z,23.65
2023-02-24T00:44:45.620Z,21.92
2023-02-24T00:46:48.153Z,22.88
2023-02-24T00:48:55.018Z,24.50
2023-02-24T00:50:57.538Z,22.17
2023-02-24T00:52:59.941Z,22.55
2023-02-24T00:55:04.372Z,18.15
2023-02-24T00:57:08.291Z,21.08
2023-02-24T00:59:11.981Z,22.27
2023-02-24T01:01:20.097Z,23.08
2023-02-24T01:03:23.132Z,21.95
2023-02-24T01:05:28.357Z,25.92
2023-02-24T01:07:31.221Z,28.95
2023-02-24T01:09:34.963Z,24.07
2023-02-24T01:11:56.156Z,23.33
2023-02-24T01:13:58.894Z,21.70
2023-02-24T01:16:04.249Z,21.35
2023-02-24T01:18:06.674Z,19.33
2023-02-24T01:20:19.774Z,20.27
2023-02-24T01:22:23.072Z,23.10
2023-02-24T01:24:31.837Z,20.73
2023-02-24T01:26:34.210Z,20.55
2023-02-24T01:28:37.665Z,20.80
2023-02-24T01:30:41.023Z,22.57
2023-02-24T01:32:44.699Z,23.05
2023-02-24T01:34:47.482Z,23.17
2023-02-24T01:36:50.175Z,24.80
2023-02-24T01:38:53.081Z,22.80
2023-02-24T01:40:59.383Z,21.40
2023-02-24T01:43:01.784Z,19.85
2023-02-24T01:45:13.026Z,17.13
2023-02-24T01:47:17.950Z,17.58
2023-02-24T01:49:50.704Z,20.00
2023-02-24T01:52:02.137Z,17.10
2023-02-24T01:54:06.043Z,20.05
2023-02-24T01:56:08.461Z,21.38
2023-02-24T01:58:16.000Z,21.27
2023-02-24T02:00:42.076Z,17.55
2023-02-24T02:02:47.448Z,16.10
2023-02-24T02:04:51.168Z,17.25
2023-02-24T02:06:54.296Z,13.45
2023-02-24T02:08:57.216Z,15.27
2023-02-24T02:11:04.628Z,17.65
2023-02-24T02:13:07.089Z,18.57
2023-02-24T02:15:13.193Z,16.83
2023-02-24T02:17:41.031Z,16.17
2023-02-24T02:20:17.453Z,15.77
2023-02-24T02:22:36.950Z,15.70
2023-02-24T02:25:20.741Z,16.87
2023-02-24T02:27:47.355Z,21.75
2023-02-24T02:30:28.371Z,22.88
2023-02-24T02:33:01.809Z,26.80
2023-02-24T02:35:20.882Z,19.00
2023-02-24T02:37:29.925Z,29.97
2023-02-24T02:40:16.164Z,17.70
2023-02-24T02:42:45.834Z,20.50
2023-02-24T02:44:58.728Z,22.33
2023-02-24T02:47:10.013Z,21.45
2023-02-24T02:49:13.896Z,19.87
2023-02-24T02:51:27.484Z,18.30
2023-02-24T02:53:39.913Z,15.23
2023-02-24T02:55:49.142Z,13.65
2023-02-24T02:57:53.718Z,17.92
2023-02-24T03:00:13.626Z,18.63
2023-02-24T03:02:19.509Z,16.88
2023-02-24T03:04:23.483Z,15.38
2023-02-24T03:06:29.341Z,15.57
2023-02-24T03:08:34.678Z,18.08
2023-02-24T03:10:37.391Z,14.37
2023-02-24T03:12:41.093Z,15.60
2023-02-24T03:14:51.862Z,19.10
2023-02-24T03:16:55.891Z,23.73
2023-02-24T03:19:05.345Z,26.60
2023-02-24T03:21:11.943Z,30.73
2023-02-24T03:23:27.326Z,27.10
2023-02-24T03:25:38.541Z,29.30
2023-02-24T03:27:46.565Z,26.23
2023-02-24T03:30:07.526Z,25.67
2023-02-24T03:32:20.593Z,33.60
2023-02-24T03:34:34.354Z,29.20
2023-02-24T03:36:36.845Z,27.50
2023-02-24T03:38:39.251Z,29.60
2023-02-24T03:40:43.568Z,24.63
2023-02-24T03:42:48.915Z,25.03
2023-02-24T03:44:51.352Z,30.35
2023-02-24T03:46:55.869Z,27.13
2023-02-24T03:49:03.543Z,28.27
2023-02-24T03:51:06.075Z,22.50
2023-02-24T03:53:23.539Z,24.40
2023-02-24T03:55:44.733Z,23.77
2023-02-24T03:58:28.458Z,22.70
2023-02-24T04:00:59.253Z,28.30
2023-02-24T04:03:40.781Z,31.67
2023-02-24T04:05:47.759Z,19.77
2023-02-24T04:07:57.826Z,23.27
2023-02-24T04:10:20.434Z,20.88
2023-02-24T04:12:32.533Z,22.48
2023-02-24T04:15:00.422Z,17.88
2023-02-24T04:17:10.219Z,21.87
2023-02-24T04:19:16.540Z,22.25
2023-02-24T04:21:21.131Z,17.98
2023-02-24T04:23:27.372Z,21.67
2023-02-24T04:25:31.151Z,20.98
2023-02-24T04:27:34.015Z,24.40
2023-02-24T04:29:41.269Z,17.50
2023-02-24T04:31:45.927Z,17.42
2023-02-24T04:33:50.531Z,17.55
2023-02-24T04:35:53.507Z,15.52
2023-02-24T04:37:56.237Z,14.87
2023-02-24T04:39:58.835Z,15.15
2023-02-24T04:42:01.797Z,16.17
2023-02-24T04:44:05.000Z,13.70
2023-02-24T04:46:08.294Z,14.55
2023-02-24T04:48:14.106Z,14.57
2023-02-24T04:50:23.105Z,16.23
2023-02-24T04:52:25.576Z,17.05
2023-02-24T04:54:29.813Z,16.67
2023-02-24T04:56:32.188Z,15.25
2023-02-24T04:58:38.393Z,18.23
2023-02-24T05:00:42.135Z,17.73
2023-02-24T05:02:44.716Z,20.92
2023-02-24T05:04:49.754Z,21.00
2023-02-24T05:06:52.291Z,19.35
2023-02-24T05:08:54.658Z,18.10
2023-02-24T05:10:58.832Z,19.90
2023-02-24T05:13:02.551Z,20.25
2023-02-24T05:15:06.286Z,27.67
2023-02-24T05:17:10.037Z,28.45
2023-02-24T05:19:36.403Z,31.10
2023-02-24T05:21:38.906Z,24.23
2023-02-24T05:23:47.001Z,25.65
2023-02-24T05:25:49.455Z,22.17
2023-02-24T05:27:51.959Z,23.20
2023-02-24T05:29:55.910Z,21.67
2023-02-24T05:32:02.501Z,21.30
2023-02-24T05:34:09.170Z,21.10
2023-02-24T05:36:17.398Z,21.58
2023-02-24T05:38:19.869Z,23.15
2023-02-24T05:40:23.384Z,21.33
2023-02-24T05:42:26.120Z,21.92
2023-02-24T05:44:28.560Z,21.75
2023-02-24T05:46:33.729Z,26.63
2023-02-24T05:48:36.144Z,21.08
2023-02-24T05:50:39.299Z,23.63
2023-02-24T05:52:45.689Z,22.45
2023-02-24T05:54:49.577Z,24.63
2023-02-24T05:56:52.229Z,27.42
2023-02-24T05:59:02.021Z,26.73
2023-02-24T06:01:16.226Z,22.30
2023-02-24T06:03:30.927Z,26.90
2023-02-24T06:05:33.374Z,25.20
2023-02-24T06:07:36.316Z,27.33
2023-02-24T06:09:40.586Z,29.88
2023-02-24T06:11:45.290Z,25.50
2023-02-24T06:13:48.358Z,29.27
2023-02-24T06:15:56.069Z,26.58
2023-02-24T06:18:00.965Z,29.92
2023-02-24T06:20:13.626Z,23.60
2023-02-24T06:22:19.310Z,23.07
2023-02-24T06:24:21.846Z,24.95
2023-02-24T06:26:25.033Z,22.42
2023-02-24T06:28:28.448Z,24.77
2023-02-24T06:30:32.852Z,26.52
2023-02-24T06:32:36.325Z,27.97
2023-02-24T06:34:39.563Z,24.27
2023-02-24T06:36:43.657Z,20.75
2023-02-24T06:38:46.345Z,21.48
2023-02-24T06:40:52.394Z,18.85
2023-02-24T06:42:54.864Z,16.00
2023-02-24T06:44:57.284Z,16.65
2023-02-24T06:47:00.151Z,17.27
2023-02-24T06:49:03.023Z,13.68
2023-02-24T06:51:07.453Z,17.17
2023-02-24T06:53:17.076Z,17.10
2023-02-24T06:55:25.780Z,17.50
2023-02-24T06:57:29.036Z,20.30
2023-02-24T06:59:32.335Z,24.40
2023-02-24T07:01:45.086Z,25.45
2023-02-24T07:04:08.660Z,25.93
2023-02-24T07:06:20.371Z,26.30
2023-02-24T07:08:25.183Z,23.48
2023-02-24T07:10:27.594Z,24.70
2023-02-24T07:12:30.262Z,25.95
2023-02-24T07:14:32.687Z,32.13
2023-02-24T07:16:35.932Z,24.70
2023-02-24T07:18:43.125Z,30.95
2023-02-24T07:20:46.784Z,26.13
2023-02-24T07:22:49.209Z,20.80
2023-02-24T07:25:00.390Z,19.13
2023-02-24T07:27:22.106Z,18.15
2023-02-24T07:29:26.357Z,17.90
2023-02-24T07:31:28.877Z,16.77
2023-02-24T07:33:34.297Z,19.35
2023-02-24T07:35:36.792Z,17.03
2023-02-24T07:37:39.222Z,15.27
2023-02-24T07:39:43.137Z,16.52
2023-02-24T07:41:46.630Z,17.88
2023-02-24T07:43:53.169Z,16.88
2023-02-24T07:45:56.395Z,20.33
2023-02-24T07:48:01.296Z,16.27
2023-02-24T07:50:06.195Z,16.25
2023-02-24T07:52:08.802Z,18.20
2023-02-24T07:54:12.960Z,17.95
2023-02-24T07:56:17.886Z,16.33
2023-02-24T07:58:21.244Z,16.90
2023-02-24T08:00:28.340Z,19.67
2023-02-24T08:02:30.866Z,16.40
2023-02-24T08:04:33.596Z,18.65
2023-02-24T08:06:45.467Z,17.47
2023-02-24T08:08:58.216Z,18.20
2023-02-24T08:11:03.998Z,18.48
2023-02-24T08:13:06.777Z,17.95
2023-02-24T08:15:17.447Z,17.30
2023-02-24T08:17:26.479Z,14.93
2023-02-24T08:19:39.463Z,16.33
2023-02-24T08:21:47.420Z,17.08
2023-02-24T08:23:49.869Z,20.35
2023-02-24T08:25:53.789Z,20.42
2023-02-24T08:28:12.102Z,19.93
2023-02-24T08:30:23.714Z,17.95
2023-02-24T08:32:37.146Z,22.42
2023-02-24T08:34:40.297Z,16.58
2023-02-24T08:36:48.535Z,19.80
2023-02-24T08:38:52.265Z,19.90
2023-02-24T08:40:57.342Z,20.73
2023-02-24T08:43:16.068Z,21.08
2023-02-24T08:45:18.559Z,20.90
2023-02-24T08:47:24.456Z,20.50
2023-02-24T08:49:28.419Z,21.83
2023-02-24T08:51:35.756Z,19.27
2023-02-24T08:53:40.740Z,16.75
2023-02-24T08:55:43.209Z,19.58
2023-02-24T08:57:53.573Z,19.92
2023-02-24T08:59:58.914Z,18.97
2023-02-24T09:02:20.630Z,19.73
2023-02-24T09:04:23.028Z,21.08
2023-02-24T09:06:44.474Z,16.27
2023-02-24T09:08:47.313Z,24.88
2023-02-24T09:10:50.095Z,17.77
2023-02-24T09:12:53.694Z,20.30
2023-02-24T09:15:01.917Z,20.15
2023-02-24T09:17:06.872Z,20.75
2023-02-24T09:19:35.189Z,19.63
2023-02-24T09:21:50.514Z,21.13
2023-02-24T09:23:52.999Z,19.90
2023-02-24T09:25:55.768Z,20.52
2023-02-24T09:28:17.769Z,21.15
2023-02-24T09:30:38.468Z,23.45
2023-02-24T09:32:41.251Z,24.60
2023-02-24T09:34:44.207Z,20.20
2023-02-24T09:37:01.595Z,20.60
2023-02-24T09:39:04.499Z,20.95
2023-02-24T09:41:34.480Z,22.73
2023-02-24T09:43:44.318Z,21.60
2023-02-24T09:46:15.950Z,23.35
2023-02-24T09:48:29.769Z,24.75
2023-02-24T09:51:02.632Z,23.45
2023-02-24T09:53:14.245Z,24.90
2023-02-24T09:55:25.014Z,23.87
2023-02-24T09:57:37.528Z,29.17
2023-02-24T10:00:33.657Z,24.15
2023-02-24T10:02:47.693Z,20.10
2023-02-24T10:05:07.197Z,22.95
2023-02-24T10:07:48.119Z,25.27
2023-02-24T10:10:19.714Z,24.20
2023-02-24T10:12:40.051Z,22.38
2023-02-24T10:15:19.099Z,22.85
2023-02-24T10:17:24.562Z,22.13
2023-02-24T10:19:34.241Z,24.03
2023-02-24T10:22:03.312Z,19.55
2023-02-24T10:24:29.481Z,21.23
2023-02-24T10:27:00.098Z,20.58
2023-02-24T10:29:22.823Z,20.23
2023-02-24T10:31:35.806Z,22.63
2023-02-24T10:33:45.253Z,22.52
2023-02-24T10:35:48.363Z,22.88
2023-02-24T10:37:50.884Z,22.50
2023-02-24T10:40:10.148Z,24.83
2023-02-24T10:42:24.402Z,21.53
2023-02-24T10:44:39.054Z,23.33
2023-02-24T10:46:42.813Z,22.77
2023-02-24T10:49:00.507Z,23.45
2023-02-24T10:51:11.484Z,23.60
2023-02-24T10:53:35.066Z,21.80
2023-02-24T10:55:45.174Z,19.75
2023-02-24T10:57:58.951Z,22.48
2023-02-24T11:00:20.352Z,21.20
2023-02-24T11:02:32.893Z,18.75
2023-02-24T11:05:04.589Z,20.30
2023-02-24T11:07:12.525Z,20.08
2023-02-24T11:09:27.780Z,16.90
2023-02-24T11:11:54.214Z,20.10
2023-02-24T11:14:17.178Z,22.05
2023-02-24T11:16:38.697Z,17.47
2023-02-24T11:18:47.062Z,20.20
2023-02-24T11:20:54.435Z,19.77
2023-02-24T11:22:57.797Z,26.70
2023-02-24T11:25:18.340Z,16.70
2023-02-24T11:27:24.500Z,19.17
2023-02-24T11:29:53.768Z,17.85
2023-02-24T11:32:02.543Z,15.98
2023-02-24T11:34:38.330Z,18.08
2023-02-24T11:37:11.740Z,16.45
2023-02-24T11:39:21.241Z,19.50
2023-02-24T11:41:33.764Z,20.10
2023-02-24T11:43:38.616Z,15.25
2023-02-24T11:46:05.964Z,15.65
2023-02-24T11:48:16.205Z,17.88
2023-02-24T11:50:32.838Z,17.63
2023-02-24T11:52:39.350Z,15.35
2023-02-24T11:54:46.959Z,15.80
2023-02-24T11:56:55.040Z,17.35
2023-02-24T11:59:18.695Z,16.65
2023-02-24T12:01:46.621Z,14.87
2023-02-24T12:04:13.868Z,14.80
2023-02-24T12:06:22.098Z,16.85
2023-02-24T12:08:39.830Z,17.80
2023-02-24T12:10:47.691Z,17.02
2023-02-24T12:12:55.853Z,15.37
2023-02-24T12:15:01.327Z,14.30
2023-02-24T12:17:18.284Z,14.25
2023-02-24T12:19:37.544Z,12.82
2023-02-24T12:21:44.587Z,13.20
2023-02-24T12:23:48.584Z,12.70
2023-02-24T12:26:18.673Z,15.40
2023-02-24T12:28:44.211Z,13.80
2023-02-24T12:30:49.843Z,13.02
2023-02-24T12:33:06.234Z,11.75
2023-02-24T12:35:29.900Z,13.37
2023-02-24T12:37:48.560Z,11.57
2023-02-24T12:40:12.789Z,14.48
2023-02-24T12:42:34.923Z,14.30
2023-02-24T12:44:42.790Z,21.42
2023-02-24T12:46:49.387Z,14.83
2023-02-24T12:49:09.307Z,15.32
2023-02-24T12:51:23.261Z,14.38
2023-02-24T12:53:44.468Z,15.75
2023-02-24T12:56:14.378Z,17.85
2023-02-24T12:58:25.968Z,13.90
2023-02-24T13:00:50.858Z,16.05
2023-02-24T13:03:06.746Z,16.60
2023-02-24T13:05:33.331Z,13.75
2023-02-24T13:07:54.591Z,14.88
2023-02-24T13:10:11.549Z,12.47
2023-02-24T13:12:21.175Z,12.98
2023-02-24T13:14:27.472Z,10.70
2023-02-24T13:16:34.480Z,11.93
2023-02-24T13:18:39.683Z,10.30
2023-02-24T13:20:43.012Z,13.07
2023-02-24T13:22:48.133Z,12.23
2023-02-24T13:25:14.499Z,14.05
2023-02-24T13:27:24.865Z,12.07
2023-02-24T13:29:27.266Z,16.42
2023-02-24T13:31:50.509Z,13.47
2023-02-24T13:33:53.100Z,15.73
2023-02-24T13:36:22.205Z,19.88
2023-02-24T13:38:33.950Z,21.00
2023-02-24T13:40:36.708Z,19.35
2023-02-24T13:42:39.112Z,24.60
2023-02-24T13:45:09.313Z,16.23
2023-02-24T13:47:49.428Z,11.93
2023-02-24T13:50:27.349Z,15.27
2023-02-24T13:53:00.646Z,14.70
2023-02-24T13:55:23.602Z,13.50
2023-02-24T13:57:48.877Z,12.98
2023-02-24T14:00:10.233Z,15.32
2023-02-24T14:02:12.834Z,15.18
2023-02-24T14:04:23.129Z,18.88
2023-02-24T14:06:27.281Z,16.10
2023-02-24T14:08:54.203Z,10.77
2023-02-24T14:10:58.090Z,15.82
2023-02-24T14:13:20.746Z,14.55
2023-02-24T14:15:26.081Z,15.68
2023-02-24T14:17:35.999Z,15.17
2023-02-24T14:19:38.462Z,19.00
2023-02-24T14:21:57.278Z,9.60
2023-02-24T14:24:13.670Z,14.52
2023-02-24T14:26:18.658Z,13.85
2023-02-24T14:28:24.448Z,12.33
2023-02-24T14:30:34.798Z,14.13
2023-02-24T14:32:37.227Z,21.27
2023-02-24T14:34:39.751Z,14.07
2023-02-24T14:36:44.973Z,16.10
2023-02-24T14:38:47.415Z,14.87
2023-02-24T14:40:49.836Z,10.68
2023-02-24T14:42:54.627Z,17.42
2023-02-24T14:44:58.772Z,14.57
2023-02-24T14:47:06.573Z,12.18
2023-02-24T14:49:22.494Z,14.50
2023-02-24T14:51:35.689Z,17.25
2023-02-24T14:53:52.184Z,13.85
2023-02-24T14:55:56.411Z,11.32
2023-02-24T14:58:03.248Z,10.80
2023-02-24T15:00:12.237Z,11.87
2023-02-24T15:02:19.604Z,17.48
2023-02-24T15:04:36.854Z,15.13
2023-02-24T15:06:42.963Z,11.27
2023-02-24T15:08:49.031Z,9.98
2023-02-24T15:10:51.484Z,9.13
2023-02-24T15:13:18.784Z,13.10
2023-02-24T15:15:21.275Z,11.27
2023-02-24T15:17:24.222Z,15.40
2023-02-24T15:19:38.628Z,13.40
2023-02-24T15:21:43.020Z,16.83
2023-02-24T15:23:46.686Z,20.00
2023-02-24T15:25:49.302Z,16.05
2023-02-24T15:27:58.109Z,19.80
2023-02-24T15:30:39.273Z,21.23
2023-02-24T15:32:41.904Z,20.83
2023-02-24T15:34:48.882Z,16.25
2023-02-24T15:36:54.855Z,18.55
2023-02-24T15:39:06.851Z,16.50
2023-02-24T15:41:11.197Z,12.68
2023-02-24T15:43:30.528Z,21.30
2023-02-24T15:45:35.591Z,29.38
2023-02-24T15:47:45.309Z,22.20
2023-02-24T15:49:47.737Z,25.42
2023-02-24T15:51:52.509Z,24.63
2023-02-24T15:53:55.131Z,22.57
2023-02-24T15:55:57.588Z,25.95
2023-02-24T15:58:02.532Z,27.42
2023-02-24T16:00:13.378Z,37.03
2023-02-24T16:02:21.312Z,24.20
2023-02-24T16:04:26.897Z,20.40
2023-02-24T16:06:29.739Z,22.73
2023-02-24T16:08:32.215Z,21.80
2023-02-24T16:10:34.765Z,19.38
2023-02-24T16:12:43.046Z,24.55
2023-02-24T16:14:46.202Z,19.97
2023-02-24T16:16:48.686Z,26.67
2023-02-24T16:18:51.651Z,20.27
2023-02-24T16:20:57.309Z,21.00
2023-02-24T16:23:04.937Z,18.45
2023-02-24T16:25:08.515Z,22.03
2023-02-24T16:27:19.433Z,22.80
2023-02-24T16:29:21.882Z,19.58
2023-02-24T16:31:26.137Z,18.65
2023-02-24T16:33:29.068Z,19.17
2023-02-24T16:35:31.557Z,20.63
2023-02-24T16:37:34.108Z,24.13
2023-02-24T16:39:36.639Z,33.55
2023-02-24T16:41:39.283Z,22.98
2023-02-24T16:43:42.009Z,19.33
2023-02-24T16:45:45.517Z,17.27
2023-02-24T16:47:51.002Z,18.50
2023-02-24T16:49:57.938Z,18.20
2023-02-24T16:52:00.826Z,20.38
2023-02-24T16:54:03.655Z,19.15
2023-02-24T16:56:07.653Z,21.87
2023-02-24T16:58:11.280Z,22.05
2023-02-24T17:00:15.346Z,21.15
2023-02-24T17:02:20.895Z,21.85
2023-02-24T17:04:27.012Z,22.13
2023-02-24T17:06:29.670Z,16.17
2023-02-24T17:08:32.126Z,26.23
2023-02-24T17:10:38.057Z,19.30
2023-02-24T17:12:40.497Z,14.40
2023-02-24T17:14:42.949Z,16.83
2023-02-24T17:16:45.719Z,24.87
2023-02-24T17:18:48.238Z,32.38
2023-02-24T17:20:50.939Z,22.17
2023-02-24T17:22:53.396Z,23.13
2023-02-24T17:24:57.088Z,21.65
2023-02-24T17:27:00.638Z,20.90
2023-02-24T17:29:03.126Z,18.70
2023-02-24T17:31:07.563Z,33.25
2023-02-24T17:33:10.811Z,50.10
2023-02-24T17:35:13.307Z,20.25
2023-02-24T17:37:15.754Z,35.77
2023-02-24T17:39:18.341Z,28.60
2023-02-24T17:41:20.786Z,19.50
2023-02-24T17:43:23.687Z,26.65
2023-02-24T17:45:26.140Z,36.38
2023-02-24T17:47:28.532Z,27.13
2023-02-24T17:49:31.039Z,18.35
2023-02-24T17:51:33.631Z,24.50
2023-02-24T17:53:36.017Z,20.23
2023-02-24T17:55:39.440Z,22.67
2023-02-24T17:57:41.971Z,21.50
2023-02-24T17:59:47.963Z,25.08
2023-02-24T18:01:50.493Z,20.70
2023-02-24T18:03:53.843Z,25.23
2023-02-24T18:06:07.637Z,17.27
2023-02-24T18:08:10.046Z,23.53
2023-02-24T18:10:13.125Z,24.65
2023-02-24T18:12:17.312Z,22.95
2023-02-24T18:14:19.837Z,23.98
2023-02-24T18:16:22.751Z,29.75
2023-02-24T18:18:26.919Z,24.60
2023-02-24T18:20:30.616Z,27.90
2023-02-24T18:22:33.114Z,27.10
2023-02-24T18:24:36.240Z,28.10
2023-02-24T18:26:39.488Z,24.98
2023-02-24T18:28:42.167Z,24.90
2023-02-24T18:30:44.782Z,28.13
2023-02-24T18:32:47.593Z,24.40
2023-02-24T18:34:50.227Z,19.63
2023-02-24T18:36:52.696Z,22.83
2023-02-24T18:38:56.553Z,22.23
2023-02-24T18:41:07.494Z,22.45
2023-02-24T18:43:09.948Z,18.33
2023-02-24T18:45:12.346Z,21.45
2023-02-24T18:47:14.833Z,19.63
2023-02-24T18:49:17.427Z,23.77
2023-02-24T18:51:21.709Z,20.98
2023-02-24T18:53:25.233Z,18.85
2023-02-24T18:55:27.745Z,21.92
2023-02-24T18:57:30.237Z,24.88
2023-02-24T18:59:32.799Z,21.73
2023-02-24T19:01:38.668Z,24.38
2023-02-24T19:03:41.874Z,22.10
2023-02-24T19:05:44.312Z,23.98
2023-02-24T19:07:46.760Z,19.50
2023-02-24T19:09:50.275Z,24.03
2023-02-24T19:11:54.205Z,17.15
2023-02-24T19:13:56.750Z,20.27
2023-02-24T19:16:00.743Z,26.50
2023-02-24T19:18:05.347Z,25.27
2023-02-24T19:20:08.745Z,22.67
2023-02-24T19:22:11.280Z,26.42
2023-02-24T19:24:14.160Z,23.10
2023-02-24T19:26:22.097Z,17.75
2023-02-24T19:28:24.828Z,21.00
2023-02-24T19:30:27.460Z,18.73
2023-02-24T19:32:29.976Z,21.65
2023-02-24T19:34:32.455Z,18.55
2023-02-24T19:36:36.421Z,16.40
2023-02-24T19:38:41.984Z,19.25
2023-02-24T19:40:44.662Z,16.73
2023-02-24T19:42:49.341Z,16.08
2023-02-24T19:44:52.248Z,21.08
2023-02-24T19:46:54.684Z,18.10
2023-02-24T19:48:57.469Z,21.13
2023-02-24T19:51:00.290Z,21.77
2023-02-24T19:53:02.695Z,14.57
2023-02-24T19:55:05.571Z,17.60
2023-02-24T19:57:10.204Z,17.17
2023-02-24T19:59:12.742Z,18.33
2023-02-24T20:01:15.907Z,18.40
2023-02-24T20:03:18.491Z,19.45
2023-02-24T20:05:21.184Z,17.02
2023-02-24T20:07:24.492Z,22.33
2023-02-24T20:09:27.053Z,19.42
2023-02-24T20:11:29.988Z,22.33
2023-02-24T20:13:32.473Z,21.13
2023-02-24T20:15:36.106Z,23.15
2023-02-24T20:17:38.653Z,17.52
2023-02-24T20:19:41.039Z,18.40
2023-02-24T20:21:43.720Z,25.43
2023-02-24T20:23:46.231Z,30.85
2023-02-24T20:25:53.066Z,22.90
2023-02-24T20:27:55.521Z,20.00
2023-02-24T20:29:58.779Z,25.30
2023-02-24T20:32:01.644Z,28.47
2023-02-24T20:34:05.261Z,21.45
2023-02-24T20:36:09.872Z,24.27
2023-02-24T20:38:12.953Z,21.70
2023-02-24T20:40:15.378Z,21.73
2023-02-24T20:42:17.739Z,24.20
2023-02-24T20:44:20.537Z,19.90
2023-02-24T20:46:25.023Z,17.02
2023-02-24T20:48:27.967Z,21.73
2023-02-24T20:50:30.615Z,24.10
2023-02-24T20:52:34.332Z,22.10
2023-02-24T20:54:36.973Z,26.02
2023-02-24T20:56:41.505Z,20.08
2023-02-24T20:58:43.902Z,22.48
2023-02-24T21:00:46.333Z,21.52
2023-02-24T21:02:48.823Z,27.33
2023-02-24T21:04:51.287Z,19.08
2023-02-24T21:06:54.377Z,20.17
2023-02-24T21:08:57.651Z,26.55
2023-02-24T21:11:00.117Z,28.35
2023-02-24T21:13:03.803Z,35.80
2023-02-24T21:15:06.901Z,34.83
2023-02-24T21:17:09.862Z,20.23
2023-02-24T21:19:12.396Z,25.10
2023-02-24T21:21:16.065Z,31.45
2023-02-24T21:23:18.552Z,29.60
2023-02-24T21:25:20.982Z,21.25
2023-02-24T21:27:23.726Z,29.17
2023-02-24T21:29:26.169Z,24.65
2023-02-24T21:31:28.847Z,27.08
2023-02-24T21:33:31.448Z,20.97
2023-02-24T21:35:33.835Z,21.50
2023-02-24T21:37:36.289Z,23.45
2023-02-24T21:39:38.793Z,24.25
2023-02-24T21:41:42.374Z,17.48
2023-02-24T21:43:44.829Z,17.53
2023-02-24T21:45:47.860Z,20.60
2023-02-24T21:47:50.854Z,17.67
2023-02-24T21:49:53.764Z,20.50
2023-02-24T21:51:56.213Z,21.38
2023-02-24T21:53:59.058Z,19.57
2023-02-24T21:56:11.102Z,20.15
2023-02-24T21:58:13.670Z,24.95
2023-02-24T22:00:20.640Z,19.48
2023-02-24T22:02:23.143Z,21.40
2023-02-24T22:04:25.669Z,26.60
2023-02-24T22:06:31.577Z,21.73
2023-02-24T22:08:34.374Z,18.38
2023-02-24T22:10:36.854Z,16.38
2023-02-24T22:12:39.445Z,19.65
2023-02-24T22:14:44.158Z,20.00
2023-02-24T22:16:46.560Z,21.55
2023-02-24T22:18:50.212Z,24.90
2023-02-24T22:20:52.677Z,21.75
2023-02-24T22:22:55.190Z,18.88
2023-02-24T22:24:57.903Z,22.10
2023-02-24T22:27:00.332Z,14.82
2023-02-24T22:29:02.956Z,16.45
2023-02-24T22:31:06.684Z,18.48
2023-02-24T22:33:09.178Z,19.80
2023-02-24T22:35:11.625Z,19.40
2023-02-24T22:37:14.305Z,21.33
2023-02-24T22:39:17.198Z,29.48
2023-02-24T22:41:22.742Z,24.55
2023-02-24T22:43:25.699Z,22.58
2023-02-24T22:45:28.137Z,15.73
2023-02-24T22:47:30.631Z,17.08
2023-02-24T22:49:33.032Z,19.70
2023-02-24T22:51:35.497Z,23.85
2023-02-24T22:53:39.919Z,21.88
2023-02-24T22:55:49.221Z,30.93
2023-02-24T22:57:51.697Z,26.90
2023-02-24T22:59:54.182Z,19.55
2023-02-24T23:01:56.587Z,19.38
2023-02-24T23:04:03.891Z,20.55
2023-02-24T23:06:13.589Z,24.67
2023-02-24T23:08:16.041Z,23.70
2023-02-24T23:10:18.528Z,20.77
2023-02-24T23:12:22.367Z,21.50
2023-02-24T23:14:24.882Z,22.13
2023-02-24T23:16:29.549Z,27.10
2023-02-24T23:18:33.347Z,19.50
2023-02-24T23:20:35.708Z,20.50
2023-02-24T23:22:39.323Z,21.52
2023-02-24T23:24:41.690Z,22.92
2023-02-24T23:26:49.510Z,23.80
2023-02-24T23:28:51.921Z,20.42
2023-02-24T23:30:55.143Z,22.75
2023-02-24T23:32:57.515Z,22.45
2023-02-24T23:34:59.933Z,30.73
2023-02-24T23:37:02.386Z,16.33
2023-02-24T23:39:05.955Z,15.15
2023-02-24T23:41:09.684Z,21.42
2023-02-24T23:43:12.765Z,23.90
2023-02-24T23:45:15.247Z,20.73
2023-02-24T23:47:17.765Z,18.53
2023-02-24T23:49:20.460Z,21.38
2023-02-24T23:51:23.000Z,25.35
2023-02-24T23:53:26.135Z,29.27
2023-02-24T23:55:30.820Z,17.30
2023-02-24T23:57:33.229Z,24.20
2023-02-24T23:59:35.778Z,25.42
